sensor_id;sensor_type;location;lat;lon;timestamp;P1;durP1;ratioP1;P2;durP2;ratioP2
2624;SDS011;1322;53.256;10.386;2023-11-18T00:00:31;8.80;;;5.93;;
2624;SDS011;1322;53.256;10.386;2023-11-18T00:02:56;12.17;;;8.40;;
2624;SDS011;1322;53.256;10.386;2023-11-18T00:05:22;9.10;;;7.13;;
2624;SDS011;1322;53.256;10.386;2023-11-18T00:07:48;8.00;;;6.30;;
2624;SDS011;1322;53.256;10.386;2023-11-18T00:10:15;5.60;;;4.97;;
2624;SDS011;1322;53.256;10.386;2023-11-18T00:12:41;9.70;;;5.63;;
2624;SDS011;1322;53.256;10.386;2023-11-18T00:15:07;9.30;;;6.03;;
2624;SDS011;1322;53.256;10.386;2023-11-18T00:17:36;6.87;;;4.60;;
2624;SDS011;1322;53.256;10.386;2023-11-18T00:20:02;9.57;;;6.03;;
2624;SDS011;1322;53.256;10.386;2023-11-18T00:22:33;8.17;;;5.43;;
2624;SDS011;1322;53.256;10.386;2023-11-18T00:24:59;7.50;;;5.47;;
2624;SDS011;1322;53.256;10.386;2023-11-18T00:27:25;6.80;;;5.13;;
2624;SDS011;1322;53.256;10.386;2023-11-18T00:29:50;6.90;;;5.30;;
2624;SDS011;1322;53.256;10.386;2023-11-18T00:32:18;5.93;;;5.30;;
2624;SDS011;1322;53.256;10.386;2023-11-18T00:34:43;7.70;;;5.80;;
2624;SDS011;1322;53.256;10.386;2023-11-18T00:37:09;9.97;;;6.20;;
2624;SDS011;1322;53.256;10.386;2023-11-18T00:39:35;6.23;;;5.10;;
2624;SDS011;1322;53.256;10.386;2023-11-18T00:42:02;6.90;;;5.60;;
2624;SDS011;1322;53.256;10.386;2023-11-18T00:44:28;8.13;;;5.73;;
2624;SDS011;1322;53.256;10.386;2023-11-18T00:46:53;7.83;;;6.00;;
2624;SDS011;1322;53.256;10.386;2023-11-18T00:49:19;7.97;;;5.40;;
2624;SDS011;1322;53.256;10.386;2023-11-18T00:51:44;9.67;;;6.13;;
2624;SDS011;1322;53.256;10.386;2023-11-18T00:54:10;9.63;;;6.43;;
2624;SDS011;1322;53.256;10.386;2023-11-18T00:56:37;8.57;;;5.57;;
2624;SDS011;1322;53.256;10.386;2023-11-18T00:59:03;9.17;;;6.33;;
2624;SDS011;1322;53.256;10.386;2023-11-18T01:01:31;7.73;;;4.87;;
2624;SDS011;1322;53.256;10.386;2023-11-18T01:03:57;8.17;;;5.73;;
2624;SDS011;1322;53.256;10.386;2023-11-18T01:06:24;10.40;;;6.67;;
2624;SDS011;1322;53.256;10.386;2023-11-18T01:08:51;9.40;;;6.97;;
2624;SDS011;1322;53.256;10.386;2023-11-18T01:11:17;11.17;;;7.40;;
2624;SDS011;1322;53.256;10.386;2023-11-18T01:13:44;10.93;;;6.70;;
2624;SDS011;1322;53.256;10.386;2023-11-18T01:16:11;7.97;;;5.47;;
2624;SDS011;1322;53.256;10.386;2023-11-18T01:18:36;10.93;;;6.20;;
2624;SDS011;1322;53.256;10.386;2023-11-18T01:21:02;10.20;;;6.97;;
2624;SDS011;1322;53.256;10.386;2023-11-18T01:23:28;7.77;;;5.67;;
2624;SDS011;1322;53.256;10.386;2023-11-18T01:25:53;7.90;;;5.53;;
2624;SDS011;1322;53.256;10.386;2023-11-18T01:28:20;7.60;;;5.87;;
2624;SDS011;1322;53.256;10.386;2023-11-18T01:30:47;10.03;;;6.70;;
2624;SDS011;1322;53.256;10.386;2023-11-18T01:33:12;8.83;;;6.77;;
2624;SDS011;1322;53.256;10.386;2023-11-18T01:35:39;7.50;;;5.47;;
2624;SDS011;1322;53.256;10.386;2023-11-18T01:38:05;8.37;;;6.07;;
2624;SDS011;1322;53.256;10.386;2023-11-18T01:40:31;9.10;;;6.33;;
2624;SDS011;1322;53.256;10.386;2023-11-18T01:42:58;9.30;;;6.53;;
2624;SDS011;1322;53.256;10.386;2023-11-18T01:45:24;8.53;;;6.00;;
2624;SDS011;1322;53.256;10.386;2023-11-18T01:47:51;6.80;;;5.50;;
2624;SDS011;1322;53.256;10.386;2023-11-18T01:50:18;8.80;;;6.43;;
2624;SDS011;1322;53.256;10.386;2023-11-18T01:52:44;9.80;;;6.77;;
2624;SDS011;1322;53.256;10.386;2023-11-18T01:55:11;8.10;;;6.20;;
2624;SDS011;1322;53.256;10.386;2023-11-18T01:57:38;7.67;;;5.33;;
2624;SDS011;1322;53.256;10.386;2023-11-18T02:00:08;8.03;;;5.80;;
2624;SDS011;1322;53.256;10.386;2023-11-18T02:02:36;7.80;;;5.87;;
2624;SDS011;1322;53.256;10.386;2023-11-18T02:05:03;9.03;;;5.93;;
2624;SDS011;1322;53.256;10.386;2023-11-18T02:07:31;7.27;;;5.40;;
2624;SDS011;1322;53.256;10.386;2023-11-18T02:10:00;8.93;;;7.37;;
2624;SDS011;1322;53.256;10.386;2023-11-18T02:12:29;8.27;;;6.30;;
2624;SDS011;1322;53.256;10.386;2023-11-18T02:15:05;7.17;;;5.73;;
2624;SDS011;1322;53.256;10.386;2023-11-18T02:17:36;8.97;;;5.80;;
2624;SDS011;1322;53.256;10.386;2023-11-18T02:20:07;8.50;;;6.27;;
2624;SDS011;1322;53.256;10.386;2023-11-18T02:22:41;8.57;;;5.33;;
2624;SDS011;1322;53.256;10.386;2023-11-18T02:25:09;6.80;;;5.00;;
2624;SDS011;1322;53.256;10.386;2023-11-18T02:27:36;7.43;;;6.03;;
2624;SDS011;1322;53.256;10.386;2023-11-18T02:30:03;7.30;;;6.13;;
2624;SDS011;1322;53.256;10.386;2023-11-18T02:32:39;7.97;;;5.77;;
2624;SDS011;1322;53.256;10.386;2023-11-18T02:35:18;7.67;;;5.30;;
2624;SDS011;1322;53.256;10.386;2023-11-18T02:37:50;7.80;;;5.67;;
2624;SDS011;1322;53.256;10.386;2023-11-18T02:40:20;8.47;;;5.97;;
2624;SDS011;1322;53.256;10.386;2023-11-18T02:42:55;10.37;;;7.17;;
2624;SDS011;1322;53.256;10.386;2023-11-18T02:45:24;12.07;;;5.10;;
2624;SDS011;1322;53.256;10.386;2023-11-18T02:47:50;9.60;;;6.30;;
2624;SDS011;1322;53.256;10.386;2023-11-18T02:50:16;9.03;;;6.20;;
2624;SDS011;1322;53.256;10.386;2023-11-18T02:52:44;8.43;;;5.23;;
2624;SDS011;1322;53.256;10.386;2023-11-18T02:55:10;8.10;;;5.83;;
2624;SDS011;1322;53.256;10.386;2023-11-18T02:57:36;7.37;;;4.90;;
2624;SDS011;1322;53.256;10.386;2023-11-18T03:00:03;9.03;;;5.47;;
2624;SDS011;1322;53.256;10.386;2023-11-18T03:02:30;8.47;;;6.30;;
2624;SDS011;1322;53.256;10.386;2023-11-18T03:04:58;8.20;;;6.30;;
2624;SDS011;1322;53.256;10.386;2023-11-18T03:07:25;6.50;;;5.27;;
2624;SDS011;1322;53.256;10.386;2023-11-18T03:09:52;8.10;;;6.10;;
2624;SDS011;1322;53.256;10.386;2023-11-18T03:12:22;7.37;;;5.47;;
2624;SDS011;1322;53.256;10.386;2023-11-18T03:14:48;8.67;;;6.03;;
2624;SDS011;1322;53.256;10.386;2023-11-18T03:17:14;10.03;;;6.50;;
2624;SDS011;1322;53.256;10.386;2023-11-18T03:19:39;5.83;;;5.23;;
2624;SDS011;1322;53.256;10.386;2023-11-18T03:22:06;10.07;;;5.30;;
2624;SDS011;1322;53.256;10.386;2023-11-18T03:24:32;8.20;;;5.83;;
2624;SDS011;1322;53.256;10.386;2023-11-18T03:26:58;11.57;;;6.10;;
2624;SDS011;1322;53.256;10.386;2023-11-18T03:29:24;7.87;;;6.23;;
2624;SDS011;1322;53.256;10.386;2023-11-18T03:31:49;7.70;;;5.70;;
2624;SDS011;1322;53.256;10.386;2023-11-18T03:34:15;7.70;;;6.13;;
2624;SDS011;1322;53.256;10.386;2023-11-18T03:36:41;9.10;;;6.77;;
2624;SDS011;1322;53.256;10.386;2023-11-18T03:39:09;8.77;;;6.47;;
2624;SDS011;1322;53.256;10.386;2023-11-18T03:41:36;8.03;;;5.43;;
2624;SDS011;1322;53.256;10.386;2023-11-18T03:44:02;8.83;;;5.80;;
2624;SDS011;1322;53.256;10.386;2023-11-18T03:46:29;7.30;;;5.63;;
2624;SDS011;1322;53.256;10.386;2023-11-18T03:48:57;9.20;;;5.70;;
2624;SDS011;1322;53.256;10.386;2023-11-18T03:51:23;8.17;;;5.40;;
2624;SDS011;1322;53.256;10.386;2023-11-18T03:53:48;8.43;;;5.87;;
2624;SDS011;1322;53.256;10.386;2023-11-18T03:56:18;7.87;;;5.37;;
2624;SDS011;1322;53.256;10.386;2023-11-18T03:58:44;8.27;;;5.77;;
2624;SDS011;1322;53.256;10.386;2023-11-18T04:01:18;8.43;;;6.20;;
2624;SDS011;1322;53.256;10.386;2023-11-18T04:03:54;7.40;;;5.10;;
2624;SDS011;1322;53.256;10.386;2023-11-18T04:06:20;6.57;;;5.07;;
2624;SDS011;1322;53.256;10.386;2023-11-18T04:08:46;8.60;;;6.50;;
2624;SDS011;1322;53.256;10.386;2023-11-18T04:11:13;8.13;;;5.67;;
2624;SDS011;1322;53.256;10.386;2023-11-18T04:13:43;11.30;;;6.87;;
2624;SDS011;1322;53.256;10.386;2023-11-18T04:16:12;9.13;;;5.50;;
2624;SDS011;1322;53.256;10.386;2023-11-18T04:18:40;6.03;;;4.53;;
2624;SDS011;1322;53.256;10.386;2023-11-18T04:21:06;6.17;;;4.63;;
2624;SDS011;1322;53.256;10.386;2023-11-18T04:23:33;6.50;;;4.80;;
2624;SDS011;1322;53.256;10.386;2023-11-18T04:26:03;8.93;;;5.13;;
2624;SDS011;1322;53.256;10.386;2023-11-18T04:28:29;11.10;;;6.30;;
2624;SDS011;1322;53.256;10.386;2023-11-18T04:30:55;6.77;;;4.50;;
2624;SDS011;1322;53.256;10.386;2023-11-18T04:33:21;8.27;;;5.50;;
2624;SDS011;1322;53.256;10.386;2023-11-18T04:35:46;6.60;;;4.70;;
2624;SDS011;1322;53.256;10.386;2023-11-18T04:38:12;5.70;;;4.63;;
2624;SDS011;1322;53.256;10.386;2023-11-18T04:40:38;9.13;;;5.10;;
2624;SDS011;1322;53.256;10.386;2023-11-18T04:43:06;7.63;;;5.80;;
2624;SDS011;1322;53.256;10.386;2023-11-18T04:45:31;6.43;;;4.63;;
2624;SDS011;1322;53.256;10.386;2023-11-18T04:47:57;12.37;;;6.00;;
2624;SDS011;1322;53.256;10.386;2023-11-18T04:50:24;8.87;;;5.30;;
2624;SDS011;1322;53.256;10.386;2023-11-18T04:52:50;6.50;;;4.43;;
2624;SDS011;1322;53.256;10.386;2023-11-18T04:55:15;7.60;;;5.90;;
2624;SDS011;1322;53.256;10.386;2023-11-18T04:57:41;8.93;;;5.43;;
2624;SDS011;1322;53.256;10.386;2023-11-18T05:00:07;6.07;;;4.13;;
2624;SDS011;1322;53.256;10.386;2023-11-18T05:02:37;6.97;;;5.33;;
2624;SDS011;1322;53.256;10.386;2023-11-18T05:05:06;10.30;;;5.97;;
2624;SDS011;1322;53.256;10.386;2023-11-18T05:07:32;10.37;;;4.83;;
2624;SDS011;1322;53.256;10.386;2023-11-18T05:09:58;8.27;;;5.70;;
2624;SDS011;1322;53.256;10.386;2023-11-18T05:12:24;8.27;;;5.50;;
2624;SDS011;1322;53.256;10.386;2023-11-18T05:14:49;5.67;;;4.07;;
2624;SDS011;1322;53.256;10.386;2023-11-18T05:17:15;7.47;;;5.07;;
2624;SDS011;1322;53.256;10.386;2023-11-18T05:19:41;6.40;;;5.03;;
2624;SDS011;1322;53.256;10.386;2023-11-18T05:22:07;6.83;;;5.00;;
2624;SDS011;1322;53.256;10.386;2023-11-18T05:24:33;8.47;;;4.80;;
2624;SDS011;1322;53.256;10.386;2023-11-18T05:26:59;6.20;;;4.80;;
2624;SDS011;1322;53.256;10.386;2023-11-18T05:29:27;8.30;;;4.20;;
2624;SDS011;1322;53.256;10.386;2023-11-18T05:31:53;8.70;;;5.50;;
2624;SDS011;1322;53.256;10.386;2023-11-18T05:34:22;7.83;;;5.50;;
2624;SDS011;1322;53.256;10.386;2023-11-18T05:36:48;7.80;;;6.53;;
2624;SDS011;1322;53.256;10.386;2023-11-18T05:39:19;8.23;;;5.47;;
2624;SDS011;1322;53.256;10.386;2023-11-18T05:41:49;10.50;;;4.93;;
2624;SDS011;1322;53.256;10.386;2023-11-18T05:44:16;10.87;;;5.10;;
2624;SDS011;1322;53.256;10.386;2023-11-18T05:46:44;9.60;;;6.43;;
2624;SDS011;1322;53.256;10.386;2023-11-18T05:49:16;6.40;;;4.97;;
2624;SDS011;1322;53.256;10.386;2023-11-18T05:51:43;7.70;;;5.77;;
2624;SDS011;1322;53.256;10.386;2023-11-18T05:54:09;6.90;;;4.83;;
2624;SDS011;1322;53.256;10.386;2023-11-18T05:56:35;6.37;;;4.80;;
2624;SDS011;1322;53.256;10.386;2023-11-18T05:59:01;6.70;;;5.00;;
2624;SDS011;1322;53.256;10.386;2023-11-18T06:01:30;7.37;;;5.17;;
2624;SDS011;1322;53.256;10.386;2023-11-18T06:03:57;9.10;;;6.53;;
2624;SDS011;1322;53.256;10.386;2023-11-18T06:06:22;6.37;;;5.40;;
2624;SDS011;1322;53.256;10.386;2023-11-18T06:08:48;7.70;;;5.27;;
2624;SDS011;1322;53.256;10.386;2023-11-18T06:11:14;9.93;;;5.60;;
2624;SDS011;1322;53.256;10.386;2023-11-18T06:13:44;8.23;;;5.70;;
2624;SDS011;1322;53.256;10.386;2023-11-18T06:16:16;7.00;;;5.03;;
2624;SDS011;1322;53.256;10.386;2023-11-18T06:18:46;9.40;;;5.30;;
2624;SDS011;1322;53.256;10.386;2023-11-18T06:21:26;7.40;;;5.60;;
2624;SDS011;1322;53.256;10.386;2023-11-18T06:23:58;9.73;;;6.20;;
2624;SDS011;1322;53.256;10.386;2023-11-18T06:26:24;7.70;;;5.57;;
2624;SDS011;1322;53.256;10.386;2023-11-18T06:28:51;8.37;;;5.70;;
2624;SDS011;1322;53.256;10.386;2023-11-18T06:31:18;9.27;;;5.07;;
2624;SDS011;1322;53.256;10.386;2023-11-18T06:33:45;7.93;;;5.43;;
2624;SDS011;1322;53.256;10.386;2023-11-18T06:38:45;9.40;;;4.83;;
2624;SDS011;1322;53.256;10.386;2023-11-18T06:41:11;9.63;;;5.43;;
2624;SDS011;1322;53.256;10.386;2023-11-18T06:43:38;8.70;;;5.13;;
2624;SDS011;1322;53.256;10.386;2023-11-18T06:48:54;9.43;;;5.60;;
2624;SDS011;1322;53.256;10.386;2023-11-18T06:51:23;8.60;;;5.60;;
2624;SDS011;1322;53.256;10.386;2023-11-18T06:53:50;5.37;;;4.40;;
2624;SDS011;1322;53.256;10.386;2023-11-18T06:56:19;8.03;;;4.13;;
2624;SDS011;1322;53.256;10.386;2023-11-18T06:58:45;7.30;;;4.60;;
2624;SDS011;1322;53.256;10.386;2023-11-18T07:01:14;6.83;;;4.90;;
2624;SDS011;1322;53.256;10.386;2023-11-18T07:03:40;7.17;;;4.70;;
2624;SDS011;1322;53.256;10.386;2023-11-18T07:06:09;8.57;;;4.57;;
2624;SDS011;1322;53.256;10.386;2023-11-18T07:08:36;11.70;;;5.13;;
2624;SDS011;1322;53.256;10.386;2023-11-18T07:11:02;9.93;;;5.40;;
2624;SDS011;1322;53.256;10.386;2023-11-18T07:13:28;8.70;;;4.77;;
2624;SDS011;1322;53.256;10.386;2023-11-18T07:15:54;8.43;;;4.90;;
2624;SDS011;1322;53.256;10.386;2023-11-18T07:18:22;9.17;;;5.53;;
2624;SDS011;1322;53.256;10.386;2023-11-18T07:20:50;10.97;;;6.33;;
2624;SDS011;1322;53.256;10.386;2023-11-18T07:23:18;9.57;;;5.83;;
2624;SDS011;1322;53.256;10.386;2023-11-18T07:25:44;7.60;;;5.53;;
2624;SDS011;1322;53.256;10.386;2023-11-18T07:28:13;8.90;;;5.40;;
2624;SDS011;1322;53.256;10.386;2023-11-18T07:30:40;6.13;;;3.80;;
2624;SDS011;1322;53.256;10.386;2023-11-18T07:33:13;10.00;;;5.43;;
2624;SDS011;1322;53.256;10.386;2023-11-18T07:35:42;7.87;;;5.37;;
2624;SDS011;1322;53.256;10.386;2023-11-18T07:38:08;8.50;;;6.00;;
2624;SDS011;1322;53.256;10.386;2023-11-18T07:40:35;6.43;;;4.53;;
2624;SDS011;1322;53.256;10.386;2023-11-18T07:43:02;7.97;;;5.30;;
2624;SDS011;1322;53.256;10.386;2023-11-18T07:45:34;8.27;;;5.17;;
2624;SDS011;1322;53.256;10.386;2023-11-18T07:48:06;10.63;;;4.80;;
2624;SDS011;1322;53.256;10.386;2023-11-18T07:50:35;5.97;;;4.60;;
2624;SDS011;1322;53.256;10.386;2023-11-18T07:53:02;9.20;;;5.30;;
2624;SDS011;1322;53.256;10.386;2023-11-18T07:55:28;8.43;;;5.23;;
2624;SDS011;1322;53.256;10.386;2023-11-18T07:57:55;6.37;;;4.90;;
2624;SDS011;1322;53.256;10.386;2023-11-18T08:00:20;11.40;;;6.47;;
2624;SDS011;1322;53.256;10.386;2023-11-18T08:02:46;9.83;;;6.70;;
2624;SDS011;1322;53.256;10.386;2023-11-18T08:05:12;7.00;;;5.10;;
2624;SDS011;1322;53.256;10.386;2023-11-18T08:07:40;9.47;;;5.73;;
2624;SDS011;1322;53.256;10.386;2023-11-18T08:10:06;9.33;;;5.00;;
2624;SDS011;1322;53.256;10.386;2023-11-18T08:12:37;7.20;;;4.87;;
2624;SDS011;1322;53.256;10.386;2023-11-18T08:15:03;10.83;;;6.00;;
2624;SDS011;1322;53.256;10.386;2023-11-18T08:17:31;6.53;;;3.73;;
2624;SDS011;1322;53.256;10.386;2023-11-18T08:19:57;9.30;;;5.17;;
2624;SDS011;1322;53.256;10.386;2023-11-18T08:22:22;5.80;;;4.23;;
2624;SDS011;1322;53.256;10.386;2023-11-18T08:24:49;6.97;;;4.83;;
2624;SDS011;1322;53.256;10.386;2023-11-18T08:27:15;7.23;;;4.53;;
2624;SDS011;1322;53.256;10.386;2023-11-18T08:29:41;9.27;;;4.40;;
2624;SDS011;1322;53.256;10.386;2023-11-18T08:32:06;12.90;;;8.00;;
2624;SDS011;1322;53.256;10.386;2023-11-18T08:34:34;21.17;;;10.50;;
2624;SDS011;1322;53.256;10.386;2023-11-18T08:37:02;11.47;;;5.93;;
2624;SDS011;1322;53.256;10.386;2023-11-18T08:39:28;8.77;;;5.47;;
2624;SDS011;1322;53.256;10.386;2023-11-18T08:41:55;12.37;;;5.20;;
2624;SDS011;1322;53.256;10.386;2023-11-18T08:44:21;10.83;;;5.27;;
2624;SDS011;1322;53.256;10.386;2023-11-18T08:46:47;8.53;;;6.10;;
2624;SDS011;1322;53.256;10.386;2023-11-18T08:49:13;7.63;;;5.83;;
2624;SDS011;1322;53.256;10.386;2023-11-18T08:51:42;8.90;;;5.57;;
2624;SDS011;1322;53.256;10.386;2023-11-18T08:54:08;7.10;;;5.43;;
2624;SDS011;1322;53.256;10.386;2023-11-18T08:56:50;8.70;;;6.50;;
2624;SDS011;1322;53.256;10.386;2023-11-18T08:59:17;10.50;;;6.17;;
2624;SDS011;1322;53.256;10.386;2023-11-18T09:01:49;14.47;;;10.63;;
2624;SDS011;1322;53.256;10.386;2023-11-18T09:04:21;12.17;;;7.30;;
2624;SDS011;1322;53.256;10.386;2023-11-18T09:06:48;8.50;;;5.57;;
2624;SDS011;1322;53.256;10.386;2023-11-18T09:09:14;11.47;;;6.33;;
2624;SDS011;1322;53.256;10.386;2023-11-18T09:11:40;10.13;;;6.63;;
2624;SDS011;1322;53.256;10.386;2023-11-18T09:14:07;6.00;;;4.67;;
2624;SDS011;1322;53.256;10.386;2023-11-18T09:16:33;7.27;;;5.53;;
2624;SDS011;1322;53.256;10.386;2023-11-18T09:19:04;5.83;;;4.10;;
2624;SDS011;1322;53.256;10.386;2023-11-18T09:21:31;8.77;;;5.50;;
2624;SDS011;1322;53.256;10.386;2023-11-18T09:24:00;8.30;;;5.00;;
2624;SDS011;1322;53.256;10.386;2023-11-18T09:26:30;7.53;;;5.30;;
2624;SDS011;1322;53.256;10.386;2023-11-18T09:28:56;6.63;;;4.83;;
2624;SDS011;1322;53.256;10.386;2023-11-18T09:31:23;8.17;;;5.10;;
2624;SDS011;1322;53.256;10.386;2023-11-18T09:33:49;7.47;;;4.93;;
2624;SDS011;1322;53.256;10.386;2023-11-18T09:36:17;8.50;;;4.50;;
2624;SDS011;1322;53.256;10.386;2023-11-18T09:38:44;8.67;;;4.07;;
2624;SDS011;1322;53.256;10.386;2023-11-18T09:41:14;8.00;;;5.00;;
2624;SDS011;1322;53.256;10.386;2023-11-18T09:43:44;5.60;;;3.37;;
2624;SDS011;1322;53.256;10.386;2023-11-18T09:46:11;10.50;;;4.13;;
2624;SDS011;1322;53.256;10.386;2023-11-18T09:48:47;5.00;;;3.50;;
2624;SDS011;1322;53.256;10.386;2023-11-18T09:51:25;7.13;;;4.20;;
2624;SDS011;1322;53.256;10.386;2023-11-18T09:53:55;6.80;;;4.10;;
2624;SDS011;1322;53.256;10.386;2023-11-18T09:59:25;5.73;;;3.13;;
2624;SDS011;1322;53.256;10.386;2023-11-18T10:02:08;4.87;;;3.20;;
2624;SDS011;1322;53.256;10.386;2023-11-18T10:04:35;6.73;;;3.60;;
2624;SDS011;1322;53.256;10.386;2023-11-18T10:07:04;4.77;;;3.47;;
2624;SDS011;1322;53.256;10.386;2023-11-18T10:09:36;5.63;;;3.30;;
2624;SDS011;1322;53.256;10.386;2023-11-18T10:12:05;3.93;;;2.90;;
2624;SDS011;1322;53.256;10.386;2023-11-18T10:14:36;4.33;;;3.63;;
2624;SDS011;1322;53.256;10.386;2023-11-18T10:17:04;4.80;;;2.53;;
2624;SDS011;1322;53.256;10.386;2023-11-18T10:19:52;4.00;;;2.53;;
2624;SDS011;1322;53.256;10.386;2023-11-18T10:24:52;4.57;;;2.80;;
2624;SDS011;1322;53.256;10.386;2023-11-18T10:27:20;4.93;;;3.53;;
2624;SDS011;1322;53.256;10.386;2023-11-18T10:29:55;4.20;;;2.63;;
2624;SDS011;1322;53.256;10.386;2023-11-18T10:32:38;2.63;;;2.10;;
2624;SDS011;1322;53.256;10.386;2023-11-18T10:35:04;3.53;;;2.03;;
2624;SDS011;1322;53.256;10.386;2023-11-18T10:37:31;3.87;;;2.10;;
2624;SDS011;1322;53.256;10.386;2023-11-18T10:39:57;6.00;;;2.53;;
2624;SDS011;1322;53.256;10.386;2023-11-18T10:42:25;3.70;;;2.37;;
2624;SDS011;1322;53.256;10.386;2023-11-18T10:44:58;6.20;;;2.30;;
2624;SDS011;1322;53.256;10.386;2023-11-18T10:47:27;3.60;;;2.40;;
2624;SDS011;1322;53.256;10.386;2023-11-18T10:49:54;3.60;;;2.37;;
2624;SDS011;1322;53.256;10.386;2023-11-18T10:52:26;3.73;;;2.53;;
2624;SDS011;1322;53.256;10.386;2023-11-18T10:55:00;2.90;;;2.20;;
2624;SDS011;1322;53.256;10.386;2023-11-18T10:57:32;4.40;;;2.73;;
2624;SDS011;1322;53.256;10.386;2023-11-18T11:00:01;4.70;;;2.70;;
2624;SDS011;1322;53.256;10.386;2023-11-18T11:02:38;5.20;;;3.47;;
2624;SDS011;1322;53.256;10.386;2023-11-18T11:05:06;9.00;;;3.20;;
2624;SDS011;1322;53.256;10.386;2023-11-18T11:07:41;4.80;;;2.83;;
2624;SDS011;1322;53.256;10.386;2023-11-18T11:10:08;4.40;;;3.20;;
2624;SDS011;1322;53.256;10.386;2023-11-18T11:12:36;3.90;;;3.17;;
2624;SDS011;1322;53.256;10.386;2023-11-18T11:15:23;4.40;;;3.23;;
2624;SDS011;1322;53.256;10.386;2023-11-18T11:17:54;3.80;;;2.80;;
2624;SDS011;1322;53.256;10.386;2023-11-18T11:20:41;3.63;;;2.67;;
2624;SDS011;1322;53.256;10.386;2023-11-18T11:26:06;3.60;;;2.30;;
2624;SDS011;1322;53.256;10.386;2023-11-18T11:31:43;4.33;;;2.43;;
2624;SDS011;1322;53.256;10.386;2023-11-18T11:34:18;3.93;;;2.63;;
2624;SDS011;1322;53.256;10.386;2023-11-18T11:36:49;3.47;;;2.93;;
2624;SDS011;1322;53.256;10.386;2023-11-18T11:39:18;3.40;;;2.43;;
2624;SDS011;1322;53.256;10.386;2023-11-18T11:41:51;3.63;;;2.70;;
2624;SDS011;1322;53.256;10.386;2023-11-18T11:44:19;3.00;;;2.20;;
2624;SDS011;1322;53.256;10.386;2023-11-18T11:46:46;3.40;;;2.47;;
2624;SDS011;1322;53.256;10.386;2023-11-18T11:49:18;4.80;;;2.90;;
2624;SDS011;1322;53.256;10.386;2023-11-18T11:54:48;7.53;;;3.30;;
2624;SDS011;1322;53.256;10.386;2023-11-18T11:57:21;4.53;;;3.43;;
2624;SDS011;1322;53.256;10.386;2023-11-18T12:02:17;4.50;;;2.80;;
2624;SDS011;1322;53.256;10.386;2023-11-18T12:04:49;2.47;;;1.90;;
2624;SDS011;1322;53.256;10.386;2023-11-18T12:07:19;2.60;;;2.20;;
2624;SDS011;1322;53.256;10.386;2023-11-18T12:09:48;3.20;;;2.00;;
2624;SDS011;1322;53.256;10.386;2023-11-18T12:12:22;2.63;;;2.10;;
2624;SDS011;1322;53.256;10.386;2023-11-18T12:14:58;3.30;;;2.30;;
2624;SDS011;1322;53.256;10.386;2023-11-18T12:20:40;4.00;;;1.60;;
2624;SDS011;1322;53.256;10.386;2023-11-18T12:23:12;2.90;;;2.00;;
2624;SDS011;1322;53.256;10.386;2023-11-18T12:25:43;4.83;;;2.47;;
2624;SDS011;1322;53.256;10.386;2023-11-18T12:30:56;2.90;;;1.90;;
2624;SDS011;1322;53.256;10.386;2023-11-18T12:47:05;2.47;;;2.27;;
2624;SDS011;1322;53.256;10.386;2023-11-18T12:49:40;2.93;;;2.00;;
2624;SDS011;1322;53.256;10.386;2023-11-18T12:52:07;3.73;;;2.50;;
2624;SDS011;1322;53.256;10.386;2023-11-18T12:54:33;2.70;;;2.13;;
2624;SDS011;1322;53.256;10.386;2023-11-18T12:57:02;4.20;;;2.60;;
2624;SDS011;1322;53.256;10.386;2023-11-18T12:59:32;4.80;;;2.13;;
2624;SDS011;1322;53.256;10.386;2023-11-18T13:01:58;3.30;;;2.40;;
2624;SDS011;1322;53.256;10.386;2023-11-18T13:04:27;3.57;;;2.20;;
2624;SDS011;1322;53.256;10.386;2023-11-18T13:06:52;3.10;;;2.20;;
2624;SDS011;1322;53.256;10.386;2023-11-18T13:09:19;7.57;;;1.70;;
2624;SDS011;1322;53.256;10.386;2023-11-18T13:12:00;3.30;;;2.20;;
2624;SDS011;1322;53.256;10.386;2023-11-18T13:14:30;2.40;;;1.70;;
2624;SDS011;1322;53.256;10.386;2023-11-18T13:17:01;3.97;;;2.73;;
2624;SDS011;1322;53.256;10.386;2023-11-18T13:19:30;6.03;;;3.10;;
2624;SDS011;1322;53.256;10.386;2023-11-18T13:21:59;3.40;;;2.60;;
2624;SDS011;1322;53.256;10.386;2023-11-18T13:24:28;4.13;;;2.50;;
2624;SDS011;1322;53.256;10.386;2023-11-18T13:26:57;4.00;;;2.77;;
2624;SDS011;1322;53.256;10.386;2023-11-18T13:29:28;4.73;;;2.87;;
2624;SDS011;1322;53.256;10.386;2023-11-18T13:31:54;4.37;;;3.00;;
2624;SDS011;1322;53.256;10.386;2023-11-18T13:34:21;4.20;;;2.20;;
2624;SDS011;1322;53.256;10.386;2023-11-18T13:36:47;2.70;;;2.33;;
2624;SDS011;1322;53.256;10.386;2023-11-18T13:39:17;3.50;;;2.83;;
2624;SDS011;1322;53.256;10.386;2023-11-18T13:41:44;4.60;;;2.93;;
2624;SDS011;1322;53.256;10.386;2023-11-18T13:44:13;4.70;;;2.90;;
2624;SDS011;1322;53.256;10.386;2023-11-18T13:47:00;4.47;;;2.70;;
2624;SDS011;1322;53.256;10.386;2023-11-18T13:49:30;2.20;;;2.00;;
2624;SDS011;1322;53.256;10.386;2023-11-18T13:52:00;4.20;;;2.73;;
2624;SDS011;1322;53.256;10.386;2023-11-18T13:54:27;2.60;;;2.20;;
2624;SDS011;1322;53.256;10.386;2023-11-18T13:56:54;3.60;;;2.90;;
2624;SDS011;1322;53.256;10.386;2023-11-18T13:59:24;3.17;;;2.30;;
2624;SDS011;1322;53.256;10.386;2023-11-18T14:01:51;2.23;;;1.80;;
2624;SDS011;1322;53.256;10.386;2023-11-18T14:04:26;2.90;;;2.03;;
2624;SDS011;1322;53.256;10.386;2023-11-18T14:06:53;2.17;;;1.77;;
2624;SDS011;1322;53.256;10.386;2023-11-18T14:09:23;3.33;;;2.20;;
2624;SDS011;1322;53.256;10.386;2023-11-18T14:11:52;2.30;;;1.87;;
2624;SDS011;1322;53.256;10.386;2023-11-18T14:14:22;3.20;;;2.50;;
2624;SDS011;1322;53.256;10.386;2023-11-18T14:16:52;4.10;;;2.60;;
2624;SDS011;1322;53.256;10.386;2023-11-18T14:19:19;8.27;;;6.60;;
2624;SDS011;1322;53.256;10.386;2023-11-18T14:21:44;7.77;;;4.23;;
2624;SDS011;1322;53.256;10.386;2023-11-18T14:24:10;3.80;;;3.10;;
2624;SDS011;1322;53.256;10.386;2023-11-18T14:26:39;4.30;;;2.90;;
2624;SDS011;1322;53.256;10.386;2023-11-18T14:29:06;5.00;;;3.07;;
2624;SDS011;1322;53.256;10.386;2023-11-18T14:31:32;8.10;;;3.50;;
2624;SDS011;1322;53.256;10.386;2023-11-18T14:33:59;5.00;;;3.30;;
2624;SDS011;1322;53.256;10.386;2023-11-18T14:36:25;6.13;;;3.80;;
2624;SDS011;1322;53.256;10.386;2023-11-18T14:38:51;4.90;;;3.67;;
2624;SDS011;1322;53.256;10.386;2023-11-18T14:41:17;5.10;;;4.10;;
2624;SDS011;1322;53.256;10.386;2023-11-18T14:43:45;6.17;;;3.97;;
2624;SDS011;1322;53.256;10.386;2023-11-18T14:46:11;5.33;;;4.13;;
2624;SDS011;1322;53.256;10.386;2023-11-18T14:48:38;4.53;;;3.60;;
2624;SDS011;1322;53.256;10.386;2023-11-18T14:51:03;3.87;;;2.90;;
2624;SDS011;1322;53.256;10.386;2023-11-18T14:53:29;5.70;;;3.43;;
2624;SDS011;1322;53.256;10.386;2023-11-18T14:55:55;5.60;;;3.57;;
2624;SDS011;1322;53.256;10.386;2023-11-18T14:58:22;4.20;;;3.53;;
2624;SDS011;1322;53.256;10.386;2023-11-18T15:00:48;6.37;;;3.90;;
2624;SDS011;1322;53.256;10.386;2023-11-18T15:03:14;7.43;;;3.60;;
2624;SDS011;1322;53.256;10.386;2023-11-18T15:05:41;4.60;;;3.10;;
2624;SDS011;1322;53.256;10.386;2023-11-18T15:08:09;7.63;;;4.27;;
2624;SDS011;1322;53.256;10.386;2023-11-18T15:10:35;5.50;;;3.07;;
2624;SDS011;1322;53.256;10.386;2023-11-18T15:13:02;3.47;;;2.50;;
2624;SDS011;1322;53.256;10.386;2023-11-18T15:15:29;5.57;;;3.00;;
2624;SDS011;1322;53.256;10.386;2023-11-18T15:18:00;3.47;;;2.50;;
2624;SDS011;1322;53.256;10.386;2023-11-18T15:20:33;3.87;;;3.00;;
2624;SDS011;1322;53.256;10.386;2023-11-18T15:23:00;4.83;;;3.20;;
2624;SDS011;1322;53.256;10.386;2023-11-18T15:25:26;5.00;;;3.30;;
2624;SDS011;1322;53.256;10.386;2023-11-18T15:27:52;3.53;;;2.60;;
2624;SDS011;1322;53.256;10.386;2023-11-18T15:30:18;4.97;;;3.20;;
2624;SDS011;1322;53.256;10.386;2023-11-18T15:32:44;6.07;;;2.43;;
2624;SDS011;1322;53.256;10.386;2023-11-18T15:35:11;4.87;;;2.90;;
2624;SDS011;1322;53.256;10.386;2023-11-18T15:37:38;3.43;;;3.07;;
2624;SDS011;1322;53.256;10.386;2023-11-18T15:40:09;4.30;;;2.20;;
2624;SDS011;1322;53.256;10.386;2023-11-18T15:42:39;5.07;;;3.17;;
2624;SDS011;1322;53.256;10.386;2023-11-18T15:45:12;3.43;;;2.40;;
2624;SDS011;1322;53.256;10.386;2023-11-18T15:47:40;6.27;;;2.63;;